Tiempo atmosférico en la estación meteorológica de Segovia, Segovia (1005 m.)



Fecha
DESCASC
Temp. máxima en grados centígrados (hora)
DESCASC
Temp. mínima en grados centígrados (hora)
DESCASC
Temp. media en grados centígrados
DESCASC
Racha de viento máxima en m/sg (hora)
DESCASC
Velocidad máxima media en intervalos de 10 minutos(hora)
DESCASC
Precipitaciones diarias en mm
DESCASC
Precipitaciones de 00:00 a 06:00 en mm
DESCASC
Precipitaciones de 06:00 a 12:00 en mm
DESCASC
Precipitaciones de 12:00 a 18:00 en mm
DESCASC
Precipitaciones de 18:00 a 24:00 en mm
DESCASC
19-04-2018 21 (16:00) 12.5 (08:00) 16.8 14.44 (04:20) 8.89 (06:20) 0 0 0 0 0
18-04-2018 23.3 (16:30) 9.7 (06:00) 16.5 8.33 (07:40) 5.56 (07:30) 0 0 0 0 0
17-04-2018 19.8 (17:20) 4.8 (07:40) 12.3 5 (18:20) 3.33 (17:50) 0 0 0 0 0
16-04-2018 -- (--) -- (--) -- -- (--) -- (--) -- 6.2 -- 0 0
15-04-2018 14.1 (17:10) 6.5 (00:00) 10.3 11.39 (22:50) 6.39 (22:50) 16.8 0 0.2 0.2 16.4
14-04-2018 14.2 (18:00) 4.7 (00:00) 9.4 5.56 (17:50) 3.33 (16:00) 0 0 0 0 0
13-04-2018 10.1 (18:20) 2.9 (00:00) 6.5 7.78 (18:20) 4.72 (18:20) 15.6 4 0.2 0.2 11.2
12-04-2018 10.4 (14:20) 3.7 (00:00) 7 15 (20:30) 8.89 (20:40) 0.8 0 0 0.2 0.6
11-04-2018 6.3 (17:50) -0.2 (00:00) 3.1 13.89 (14:30) 8.89 (15:10) 9.8 2.6 4.2 1.8 1.2
10-04-2018 8 (17:50) 0 (00:00) 4 15.83 (11:00) 10 (10:40) 16.4 0 8.2 5.8 2.4
09-04-2018 6.8 (18:50) 2 (00:00) 4.4 10 (18:50) 7.5 (18:50) 5.6 2 0.2 1.8 1.6
08-04-2018 10.8 (18:20) 4.3 (00:00) 7.6 10.56 (15:50) 6.94 (15:30) 1 0.4 0 0 0.6
07-04-2018 9.7 (00:00) 3.4 (00:00) 6.5 7.78 (00:20) 4.72 (00:30) 8.2 0 1.8 6.4 0
06-04-2018 17.5 (13:50) 9.7 (00:00) 13.6 16.39 (18:00) 10.83 (18:00) 0 0 0 0 0
05-04-2018 18.6 (18:20) 2.1 (00:00) 10.4 9.72 (23:30) 6.67 (23:30) 0 0 0 0 0
04-04-2018 12.5 (15:40) 4.6 (00:00) 8.5 21.67 (19:20) 12.22 (17:40) 1.8 0 0 0.6 1.2
03-04-2018 13.6 (15:50) 6.1 (00:00) 9.9 18.61 (16:00) 11.67 (15:00) 0.2 0 0 0 0.2
02-04-2018 17.3 (15:20) 9.5 (00:00) 13.4 14.44 (14:30) 9.72 (15:30) 0.4 0 0 0 0.4
01-04-2018 17.6 (16:50) 3.3 (00:00) 10.5 10.28 (23:30) 6.94 (23:40) 0 0 0 0 0
31-03-2018 9.4 (17:10) 1.3 (00:00) 5.3 18.89 (03:00) 12.78 (03:50) 0 0 0 0 0
30-03-2018 9.3 (17:00) 0.5 (00:00) 4.9 17.78 (19:50) 11.67 (23:00) 1.6 0.2 0 0 1.4
29-03-2018 11.2 (18:10) 4.6 (00:00) 7.9 10 (12:30) 6.67 (12:30) 0 0 0 0 0
28-03-2018 17.5 (15:50) 5.2 (00:00) 11.3 13.06 (14:50) 8.33 (14:30) 0 0 0 0 0
27-03-2018 15.4 (18:00) 5.4 (00:00) 10.4 6.94 (17:10) 4.44 (18:30) 0 0 0 0 0
26-03-2018 10.1 (18:10) 0.1 (00:00) 5.1 8.61 (19:10) 5.28 (19:10) 0 0 0 0 0
25-03-2018 6 (15:00) 1.1 (00:00) 3.6 8.89 (01:50) 6.11 (01:20) 1.2 0 0 0.6 0.6
24-03-2018 6.9 (00:10) -0.2 (00:00) 3.4 20.28 (00:10) 12.22 (14:10) 1.8 1.8 0 0 0
23-03-2018 8.6 (17:20) 1.1 (00:00) 4.9 12.78 (16:20) 8.61 (16:10) 4.8 0 0.6 3 1.2
22-03-2018 7.3 (17:50) -2.7 (-00:0) 2.3 8.33 (03:20) 5 (03:20) 0 0 0 0 0

Gráficas

Temp. máximas Temp. mínimas Temp. medias Precipitaciones Rachas de viento máximas Velocidades máximas media en intervalos de 10 minutos

Datos horarios

Fecha y hora oficial Temperatura (ºC) Velocidad del viento (km/h) Dirección del viento Racha (km/h) Dirección de racha Precipitación (mm) Presión (hPa) Tendencia (hPa) Humedad (%)
2018-04-20 23:00:00 13.7 28 Sudeste 44 Sudeste 0 904.3 1.1 56
2018-04-20 22:00:00 14.6 21 Sudeste 37 Sudeste 0 903.9 0.8 53
2018-04-20 21:00:00 15.6 16 Sudeste 35 Sudeste 0 903.6 0.2 50
2018-04-20 20:00:00 17.1 26 Sudeste 42 Sudeste 0 903.2 -0.3 44
2018-04-20 19:00:00 17.9 26 Sudeste 40 Sudeste 0 903.1 -0.6 40
2018-04-20 18:00:00 18.2 23 Sudeste 38 Sudeste 0 903.4 -0.6 39
2018-04-20 17:00:00 18.4 18 Sudeste 36 Sudeste 0 903.5 -0.8 42
2018-04-20 16:00:00 18.5 18 Sudeste 44 Sudeste 0 903.7 -1.1 38
2018-04-20 15:00:00 18.1 17 Este 37 Sudeste 0 904 -1.3 36
2018-04-20 14:00:00 17.8 16 Este 39 Este 0 904.3 -1 36
2018-04-20 13:00:00 17 13 Nordeste 32 Nordeste 0 904.8 -0.5 41
2018-04-20 12:00:00 15.6 18 Este 39 Este 0 905.3 0.1 43
2018-04-20 11:00:00 14.8 21 Este 31 Este 0 905.3 0.2 48
2018-04-20 10:00:00 14.6 15 Sudeste 27 Sudeste 0 905.3 0.4 49
2018-04-20 09:00:00 13 11 Este 21 Sudeste 0 905.2 0.1 53
2018-04-20 08:00:00 10.9 19 Sudeste 39 Sudeste 0 905.1 -0.3 62
2018-04-20 07:00:00 11.2 22 Sudeste 37 Sudeste 0 904.9 -0.3 59
2018-04-20 06:00:00 11.7 23 Sudeste 43 Sudeste 0 905.1 -0.5 57
2018-04-20 05:00:00 12.2 13 Este 26 Este 0 905.4 -0.6 54
2018-04-20 04:00:00 12.8 13 Este 40 Sudeste 0 905.2 -0.9 51
2018-04-20 03:00:00 12.8 24 Sudeste 48 Sudeste 0 905.6 -0.3 50
2018-04-20 02:00:00 12.8 17 Sudeste 30 Sudeste 0 906 -0.2 47
2018-04-20 01:00:00 14.1 13 Este 29 Sudeste 0 906.1 0.4 42
2018-04-20 00:00:00 14 14 Sudeste 20 Sudeste 0 905.9 0.8 51
2018-04-19 23:00:00 14.9 12 Sudeste 23 Sudeste 0 906.2 0.9 50
2018-04-19 22:00:00 15.1 11 Sudeste 17 Sudeste 0 905.7 0.4 50
2018-04-19 21:00:00 16.7 9 Sudeste 22 Sudeste 0 905.1 -0.2 44
2018-04-19 20:00:00 18.4 13 Sudeste 25 Este 0 905.3 -0.1 38
2018-04-19 19:00:00 19.5 15 Sudeste 29 Sur 0 905.3 -0.4 36
2018-04-19 18:00:00 19.8 19 Sudeste 30 Sudeste 0 905.3 -0.8 31
2018-04-19 17:00:00 20.6 18 Sudeste 29 Sudeste 0 905.4 -1.2 32
2018-04-19 16:00:00 20.7 13 Sudeste 26 Este 0 905.7 -1.4 29
2018-04-19 15:00:00 20.7 14 Sudeste 32 Sudeste 0 906.1 -1.1 29
2018-04-19 14:00:00 20.2 19 Sudeste 38 Sudeste 0 906.6 -0.6 30
2018-04-19 13:00:00 19.9 22 Sudeste 39 Sudeste 0 907.1 0 25
2018-04-19 12:00:00 19.5 14 Este 30 Este 0 907.2 0.3 29
2018-04-19 11:00:00 18.5 14 Este 26 Este 0 907.2 0.3 32
2018-04-19 10:00:00 17.5 9 Sudeste 18 Sudeste 0 907.1 0.1 35
2018-04-19 09:00:00 15.5 10 Sudeste 21 Este 0 906.9 -0.3 39
2018-04-19 08:00:00 12.6 13 Sudeste 24 Sudeste 0 906.9 -0.5 47
2018-04-19 07:00:00 13.2 14 Sudeste 49 Sudeste 0 907 -0.5 44
2018-04-19 06:00:00 13.2 22 Sudeste 44 Sudeste 0 907.2 -0.7 45
2018-04-19 05:00:00 13.9 29 Sudeste 52 Sudeste 0 907.4 -1 44
2018-04-19 04:00:00 14.6 29 Sudeste 51 Sudeste 0 907.5 -0.8 41
2018-04-19 03:00:00 14.4 20 Sudeste 43 Sudeste 0 907.9 -0.5 43
2018-04-19 02:00:00 14.8 24 Sudeste 39 Sudeste 0 908.4 0.1 43
2018-04-19 01:00:00 15.3 20 Sudeste 28 Sudeste 0 908.3 0.5 46
2018-04-19 00:00:00 15.3 14 Sudeste 21 Sudeste 0 908.4 1 48
2018-04-18 23:00:00 16.9 15 Sudeste 23 Este 0 908.3 0.9 50
2018-04-18 22:00:00 17.1 16 Sudeste 23 Sudeste 0 907.8 0.4 49
2018-04-18 21:00:00 17.8 15 Sudeste 26 Sur 0 907.4 -0.1 50
2018-04-18 20:00:00 19.7 18 Sur 27 Sur 0 907.4 -0.2 47
2018-04-18 19:00:00 21.7 12 Sur 21 Sur 0 907.4 -0.4 40
2018-04-18 18:00:00 22.3 12 Sur 20 Sur 0 907.5 -0.3 37
2018-04-18 17:00:00 23 6 Oeste 17 Noroeste 0 907.6 -0.5 34
2018-04-18 16:00:00 22.8 8 Noroeste 19 Oeste 0 907.8 -0.6 33
2018-04-18 15:00:00 22.5 5 Sudoeste 17 Oeste 0 907.8 -0.6 31
2018-04-18 14:00:00 21.7 10 Oeste 19 Oeste 0 908.1 -0.2 38
2018-04-18 13:00:00 20.5 10 Oeste 19 Oeste 0 908.4 0.2 40
2018-04-18 12:00:00 19.1 9 Sudoeste 15 Oeste 0 908.4 0.1 50
2018-04-18 11:00:00 17.1 7 Sudoeste 12 Sudoeste 0 908.3 0 53
2018-04-18 10:00:00 17.3 3 Sudoeste 12 Nordeste 0 908.2 0 52
2018-04-18 09:00:00 15.4 5 Sudeste 17 Sudeste 0 908.3 -0.1 47
2018-04-18 08:00:00 13.1 9 Este 30 Sudeste 0 908.3 -0.2 46
2018-04-18 07:00:00 10.2 12 Este 17 Este 0 908.2 -0.5 58
2018-04-18 06:00:00 9.8 8 Nordeste 13 Este 0 908.4 -0.5 64
2018-04-18 05:00:00 10 7 Este 11 Este 0 908.5 -0.4 64
2018-04-18 04:00:00 10.3 8 Este 10 Este 0 908.7 -0.4 66
2018-04-18 03:00:00 10.6 6 Este 11 Sudeste 0 908.9 -0.3 64
2018-04-18 02:00:00 10.8 5 Este 10 Este 0 908.9 -0.5 65
2018-04-18 01:00:00 11.3 4 Este 12 Este 0 909.1 0 63
2018-04-18 00:00:00 12.6 9 Este 15 Este 0 909.2 0.7 56
2018-04-17 23:00:00 13.7 12 Este 18 Este 0 909.4 1.2 52
2018-04-17 22:00:00 15.9 4 Este 14 Este 0 909.1 0.8 46
2018-04-17 21:00:00 17.9 2 Norte 9 Norte 0 908.5 0.3 32
2018-04-17 20:00:00 18.9 6 Norte 14 Noroeste 0 908.2 -0.1 31
2018-04-17 19:00:00 19.5 9 Noroeste 18 Noroeste 0 908.3 -0.2 31
2018-04-17 18:00:00 19.5 11 Noroeste 18 Noroeste 0 908.2 -0.6 31
2018-04-17 17:00:00 19.6 9 Noroeste 16 Noroeste 0 908.3 -0.6 35
2018-04-17 16:00:00 18.9 7 Nordeste 15 Noroeste 0 908.5 -0.7 44
2018-04-17 15:00:00 17.9 8 Oeste 17 Noroeste 0 908.8 -0.6 48
2018-04-17 14:00:00 17 5 Noroeste 17 Noroeste 0 908.9 -0.5 45
2018-04-17 13:00:00 15.1 4 Norte 12 Noroeste 0 909.2 0.1 56
2018-04-17 12:00:00 13.4 3 Oeste 12 Oeste 0 909.4 0.5 55
2018-04-17 11:00:00 11.7 7 Oeste 11 Sudoeste 0 909.4 1.3 62
2018-04-17 10:00:00 10.8 3 Sur 7 Nordeste 0 909.1 1.4 63
2018-04-17 09:00:00 7.3 6 Nordeste 8 Nordeste 0 908.9 1.3 63
2018-04-17 08:00:00 5 5 Nordeste 10 Este 0 908.1 0.7 72
2018-04-17 07:00:00 5 6 Este 8 Este 0 907.7 0.4 67
2018-04-17 06:00:00 5.2 6 Nordeste 8 Nordeste 0 907.6 0.3 61
2018-04-17 05:00:00 5.6 6 Este 11 Este 0 907.4 0.3 60
2018-04-17 04:00:00 5.7 4 Este 11 Nordeste 0 907.3 0.5 55
2018-04-17 03:00:00 6 6 Este 8 Nordeste 0 907.3 0.8 50
2018-04-17 02:00:00 6.9 5 Este 15 Este 0 907.1 0.9 41
2018-04-17 01:00:00 6.4 7 Este 12 Sudeste 0 906.8 1.1 64
2018-04-17 00:00:00 6.8 7 Este 11 Sudeste 0 906.5 1.4 76
2018-04-16 23:00:00 7.7 6 Este 12 Sudeste 0 906.2 1.5 76
2018-04-16 22:00:00 9.6 2 Sur 6 Oeste 0 905.7 1.3 62
2018-04-16 21:00:00 10.5 6 Oeste 10 Oeste 0 905.1 0.8 61
2018-04-16 20:00:00 11.8 6 Sudoeste 13 Sudoeste 0 904.7 0.2 53
2018-04-16 19:00:00 12.2 9 Sudoeste 16 Noroeste 0 904.4 0 55
2018-04-16 18:00:00 12.2 6 Oeste 15 Noroeste 0 904.3 -0.1 56
2018-04-16 17:00:00 11.8 9 Oeste 14 Oeste 0 904.5 0 56
2018-04-16 16:00:00 -- -- -- -- -- -- -- -- --
2018-04-16 15:00:00 -- -- -- -- -- -- -- -- --
2018-04-16 14:00:00 -- -- -- -- -- -- -- -- --
2018-04-16 13:00:00 -- -- -- -- -- -- -- -- --
2018-04-16 12:00:00 -- -- -- -- -- -- -- -- --
2018-04-16 11:00:00 -- -- -- -- -- -- -- -- --
2018-04-16 10:00:00 -- -- -- -- -- -- -- -- --
2018-04-16 09:00:00 -- -- -- -- -- -- -- -- --
2018-04-16 08:00:00 -- -- -- -- -- -- -- -- --
2018-04-16 07:00:00 -- -- -- -- -- -- -- -- --
2018-04-16 06:00:00 -- -- -- -- -- -- -- -- --
2018-04-16 05:00:00 -- -- -- -- -- -- -- -- --
2018-04-16 04:00:00 -- -- -- -- -- -- -- -- --
2018-04-16 03:00:00 -- -- -- -- -- -- -- -- --
2018-04-16 02:00:00 -- -- -- -- -- -- -- -- --
2018-04-16 01:00:00 -- -- -- -- -- -- -- -- --
2018-04-16 00:00:00 -- -- -- -- -- -- -- -- --
2018-04-15 23:00:00 -- -- -- -- -- -- -- -- --
2018-04-15 22:00:00 -- -- -- -- -- -- -- -- --
2018-04-15 21:00:00 -- -- -- -- -- -- -- -- --
2018-04-15 20:00:00 -- -- -- -- -- -- -- -- --
2018-04-15 19:00:00 -- -- -- -- -- -- -- -- --
2018-04-15 18:00:00 -- -- -- -- -- -- -- -- --
2018-04-15 17:00:00 -- -- -- -- -- -- -- -- --
2018-04-15 16:00:00 -- -- -- -- -- -- -- -- --
2018-04-15 15:00:00 -- -- -- -- -- -- -- -- --
2018-04-15 14:00:00 -- -- -- -- -- -- -- -- --
2018-04-15 13:00:00 -- -- -- -- -- -- -- -- --
2018-04-15 12:00:00 -- -- -- -- -- -- -- -- --
2018-04-15 11:00:00 -- -- -- -- -- -- -- -- --
2018-04-15 10:00:00 -- -- -- -- -- -- -- -- --
2018-04-15 09:00:00 -- -- -- -- -- -- -- -- --
2018-04-15 08:00:00 -- -- -- -- -- -- -- -- --
2018-04-15 07:00:00 -- -- -- -- -- -- -- -- --
2018-04-15 06:00:00 -- -- -- -- -- -- -- -- --
2018-04-15 05:00:00 -- -- -- -- -- -- -- -- --
2018-04-15 04:00:00 -- -- -- -- -- -- -- -- --
2018-04-15 03:00:00 -- -- -- -- -- -- -- -- --
2018-04-15 02:00:00 -- -- -- -- -- -- -- -- --
2018-04-15 01:00:00 -- -- -- -- -- -- -- -- --
2018-04-15 00:00:00 -- -- -- -- -- -- -- -- --
2018-04-14 23:00:00 -- -- -- -- -- -- -- -- --
2018-04-14 22:00:00 -- -- -- -- -- -- -- -- --
2018-04-14 21:00:00 -- -- -- -- -- -- -- -- --
2018-04-14 20:00:00 -- -- -- -- -- -- -- -- --
2018-04-14 19:00:00 -- -- -- -- -- -- -- -- --
2018-04-14 18:00:00 -- -- -- -- -- -- -- -- --
2018-04-14 17:00:00 -- -- -- -- -- -- -- -- --
2018-04-14 16:00:00 -- -- -- -- -- -- -- -- --
2018-04-14 15:00:00 -- -- -- -- -- -- -- -- --
2018-04-14 14:00:00 -- -- -- -- -- -- -- -- --
2018-04-14 13:00:00 -- -- -- -- -- -- -- -- --
2018-04-14 12:00:00 -- -- -- -- -- -- -- -- --
2018-04-14 11:00:00 -- -- -- -- -- -- -- -- --
2018-04-14 10:00:00 -- -- -- -- -- -- -- -- --
2018-04-14 09:00:00 -- -- -- -- -- -- -- -- --
2018-04-14 08:00:00 -- -- -- -- -- -- -- -- --
2018-04-14 07:00:00 -- -- -- -- -- -- -- -- --
2018-04-14 06:00:00 -- -- -- -- -- -- -- -- --
2018-04-14 05:00:00 -- -- -- -- -- -- -- -- --
2018-04-14 04:00:00 -- -- -- -- -- -- -- -- --
2018-04-14 03:00:00 -- -- -- -- -- -- -- -- --
2018-04-14 02:00:00 -- -- -- -- -- -- -- -- --
2018-04-14 01:00:00 6 4 Este 11 Sudeste 0 898.3 1.7 91
2018-04-14 00:00:00 6 8 Sudeste 16 Sudeste 0 897.8 2.2 89
2018-04-13 23:00:00 5.8 9 Sudeste 13 Sudeste 0.2 897.4 2.4 93
2018-04-13 22:00:00 5.8 8 Sudeste 22 Sudeste 1.8 896.6 2.5 93
2018-04-13 21:00:00 5.8 12 Este 19 Este 2.2 895.6 2.2 93
2018-04-13 20:00:00 6 6 Este 23 Sur 7 895 2 93
2018-04-13 19:00:00 8.7 15 Oeste 28 Oeste 0 894.1 1.1 70
2018-04-13 18:00:00 9.6 13 Oeste 24 Oeste 0 893.4 0.7 71
2018-04-13 17:00:00 9.7 14 Oeste 24 Oeste 0 893 0.4 68
2018-04-13 16:00:00 9 13 Noroeste 24 Oeste 0 893 0.7 77
2018-04-13 15:00:00 8.9 7 Oeste 19 Sudoeste 0 892.7 0.9 73
2018-04-13 14:00:00 7.6 9 Sudoeste 17 Sudoeste 0 892.6 1.3 85
2018-04-13 13:00:00 6.1 11 Oeste 18 Oeste 0.2 892.3 1.9 90
2018-04-13 12:00:00 5.2 10 Sudoeste 18 Sudoeste 0 891.8 2.2 92
2018-04-13 11:00:00 4.5 15 Oeste 20 Oeste 0.2 891.3 2.4 94
2018-04-13 10:00:00 4.2 8 Oeste 12 Oeste 0 890.4 2.1 92
2018-04-13 09:00:00 3.7 6 Noroeste 12 Oeste 0 889.6 1.8 96
2018-04-13 08:00:00 3.7 5 Sur 11 Sur 0 888.9 1.3 95
2018-04-13 07:00:00 3.1 8 Sur 10 Sur 0 888.3 0.8 97
2018-04-13 06:00:00 3.3 3 Sur 10 Sur 0.2 887.8 0.6 99
2018-04-13 05:00:00 3.6 3 Oeste 8 Oeste 0 887.6 0.6 96
2018-04-13 04:00:00 3.7 7 Oeste 20 Noroeste 0.8 887.5 0.9 100
2018-04-13 03:00:00 4.1 6 Oeste 15 Oeste 0.6 887.2 1.1 100
2018-04-13 02:00:00 4.6 5 Oeste 8 Oeste 1.2 887 1 98
2018-04-13 01:00:00 4.8 7 Oeste 19 Sudeste 1.2 886.6 1.2 98
2018-04-13 00:00:00 5.8 14 Sudeste 30 Este 0.6 886.1 1 77
2018-04-12 23:00:00 6.2 14 Este 37 Sudeste 0 886 1 72
2018-04-12 22:00:00 6.7 21 Sudeste 48 Sudeste 0 885.4 0.2 70
2018-04-12 21:00:00 6.9 24 Sudeste 54 Este 0 885.1 -0.5 73
2018-04-12 20:00:00 7.3 23 Sudeste 45 Sudeste 0 885 -1.4 70
2018-04-12 19:00:00 8.4 15 Este 25 Este 0 885.2 -1.8 66
2018-04-12 18:00:00 9.6 11 Este 37 Sudoeste 0 885.6 -1.8 62
2018-04-12 17:00:00 10.3 19 Sudoeste 33 Sur 0 886.4 -1.9 65
2018-04-12 16:00:00 10 17 Sur 28 Sur 0 887 -2.3 58
2018-04-12 15:00:00 9.8 10 Sudeste 23 Sudoeste 0 887.4 -2.6 61
2018-04-12 14:00:00 9.6 8 Sudoeste 17 Oeste 0 888.3 -2 62
2018-04-12 13:00:00 7.5 8 Sudoeste 14 Sudoeste 0.2 889.3 -0.7 70
2018-04-12 12:00:00 6.8 8 Sur 15 Oeste 0 890 0 77
2018-04-12 11:00:00 5.4 12 Sudoeste 18 Sudoeste 0 890.3 0.4 86
2018-04-12 10:00:00 4.9 9 Sudoeste 15 Sudoeste 0 890 0.3 91
2018-04-12 09:00:00 4.1 8 Sudoeste 13 Sudoeste 0 890 0.1 94
2018-04-12 08:00:00 3.7 8 Sudoeste 17 Oeste 0 889.9 -0.1 97
2018-04-12 07:00:00 3.7 9 Oeste 25 Oeste 0 889.7 -0.2 98
2018-04-12 06:00:00 3.8 17 Oeste 28 Oeste 0 889.9 -0.3 98
2018-04-12 05:00:00 3.9 17 Oeste 28 Oeste 0 890 -0.1 99
2018-04-12 04:00:00 3.9 18 Oeste 30 Oeste 0 889.9 -0.3 100
2018-04-12 03:00:00 3.9 15 Oeste 37 Oeste 0 890.2 -0.1 100
2018-04-12 02:00:00 4.1 18 Oeste 33 Noroeste 0 890.1 0.3 99
2018-04-12 01:00:00 4.4 19 Oeste 31 Oeste 0 890.2 1.1 98
2018-04-12 00:00:00 4.9 19 Oeste 38 Oeste 0 890.3 2.2 92
2018-04-11 23:00:00 5.5 23 Oeste 44 Oeste 0 889.8 2.1 89
2018-04-11 22:00:00 6 22 Oeste 39 Oeste 0 889.1 1.9 85
2018-04-11 21:00:00 5.8 17 Oeste 37 Oeste 0.6 888.1 1.3 88
2018-04-11 20:00:00 5.9 14 Noroeste 33 Oeste 0.4 887.7 0.9 82
2018-04-11 19:00:00 6.1 16 Oeste 39 Oeste 0.2 887.2 0.4 80
2018-04-11 18:00:00 6.2 21 Oeste 47 Oeste 0 886.8 0.3 73
2018-04-11 17:00:00 5.5 20 Oeste 45 Oeste 0.2 886.8 0.1 80
2018-04-11 16:00:00 5.1 24 Oeste 50 Noroeste 0 886.8 -0.1 79
2018-04-11 15:00:00 5.6 31 Oeste 50 Oeste 0 886.5 -0.7 70
2018-04-11 14:00:00 5.1 27 Noroeste 44 Oeste 0 886.7 -0.1 72
2018-04-11 13:00:00 4 23 Oeste 40 Noroeste 1.6 886.9 0.4 79
2018-04-11 12:00:00 2.6 17 Oeste 32 Oeste 1.6 887.2 1.1 87
2018-04-11 11:00:00 1.5 16 Oeste 29 Oeste 1.2 886.8 1.3 93
2018-04-11 10:00:00 0.7 13 Oeste 24 Noroeste 1 886.5 1.9 97
2018-04-11 09:00:00 0.4 15 Oeste 23 Oeste 0.2 886.1 2 100
2018-04-11 08:00:00 0.4 12 Oeste 22 Oeste 0.2 885.5 1.9 100
2018-04-11 07:00:00 0.2 12 Noroeste 25 Noroeste 0 884.6 1.5 100
2018-04-11 06:00:00 0.2 18 Noroeste 28 Noroeste 0.2 884.1 0.9 100
2018-04-11 05:00:00 0.1 10 Noroeste 21 Noroeste 0 883.6 0.5 100
2018-04-11 04:00:00 -0.1 7 Oeste 14 Oeste 0 883.1 0 100
2018-04-11 03:00:00 -0.1 7 Oeste 17 Oeste 0 883.2 0.3 100
2018-04-11 02:00:00 0.4 14 Oeste 27 Oeste 1 883.1 0.5 100
2018-04-11 01:00:00 1.1 12 Oeste 23 Oeste 1.4 883.1 1.1 100
2018-04-11 00:00:00 0.7 11 Sudoeste 18 Oeste 0.8 882.9 1.5 100
2018-04-10 23:00:00 0.8 9 Sudoeste 14 Sudoeste 0.2 882.6 1.5 100
2018-04-10 22:00:00 0.3 8 Sur 12 Sudoeste 0 882 1.1 100
2018-04-10 21:00:00 0.2 9 Sudoeste 12 Sudoeste 0 881.4 1.3 100
2018-04-10 20:00:00 0.3 7 Sur 14 Sur 0.6 881.1 0.9 100
2018-04-10 19:00:00 0.8 6 Noroeste 43 Oeste 0.8 880.9 -0.4 100
2018-04-10 18:00:00 5.9 24 Oeste 57 Oeste 0 880.1 -2.7 80
2018-04-10 17:00:00 7.1 7 Sudoeste 17 Sudoeste 0 880.2 -3.5 77
2018-04-10 16:00:00 5.4 8 Sudeste 19 Sudeste 0.2 881.3 -3 84
2018-04-10 15:00:00 2.4 13 Sur 28 Sudoeste 1.6 882.8 -1.3 98
2018-04-10 14:00:00 1.8 18 Oeste 27 Oeste 1.4 883.7 -0.7 98
2018-04-10 13:00:00 2.8 26 Oeste 39 Sudoeste 2.6 884.3 -0.6 93
2018-04-10 12:00:00 4.6 31 Sudoeste 52 Sur 1.4 884.1 -1.3 85
2018-04-10 11:00:00 4.8 33 Sudoeste 57 Sudoeste 1.4 884.4 -1.8 84
2018-04-10 10:00:00 4.3 29 Sudoeste 48 Sur 3 884.9 -2.2 88
2018-04-10 09:00:00 4.6 22 Sudoeste 39 Sur 2 885.4 -3.2 88
2018-04-10 08:00:00 4.9 15 Sudoeste 29 Sudoeste 0.4 886.2 -3.7 83
2018-04-10 07:00:00 4.8 17 Sur 30 Sudoeste 0 887.1 -3.6 81
2018-04-10 06:00:00 4.8 14 Sudoeste 26 Sudoeste 0 888.6 -3 82
2018-04-10 05:00:00 4.7 20 Sudoeste 31 Sudoeste 0 889.9 -2.6 87
2018-04-10 04:00:00 4.7 22 Sudoeste 37 Sudoeste 0 890.7 -2.3 92
2018-04-10 03:00:00 4.6 31 Sudoeste 42 Sudoeste 0 891.6 -1.9 92
2018-04-10 02:00:00 4.5 22 Sudoeste 28 Sudoeste 0 892.5 -1.3 92
2018-04-10 01:00:00 4.3 19 Sudoeste 31 Sudoeste 0 893 -0.6 95
2018-04-10 00:00:00 4.5 16 Sudoeste 29 Sudoeste 0 893.5 0.3 96
2018-04-09 23:00:00 4.4 21 Sudoeste 28 Sudoeste 0.4 893.8 0.8 97
2018-04-09 22:00:00 3.9 9 Sudoeste 26 Oeste 1 893.6 0.9 96
2018-04-09 21:00:00 3.9 26 Oeste 34 Oeste 0.2 893.2 0.7 91
2018-04-09 20:00:00 5.7 17 Oeste 29 Oeste 0 893 0.4 72
2018-04-09 19:00:00 6.3 20 Oeste 36 Oeste 0 892.7 0.2 71
2018-04-09 18:00:00 5.9 23 Oeste 31 Oeste 0 892.5 0 69
2018-04-09 17:00:00 5.4 20 Oeste 31 Oeste 0.8 892.6 0.1 77
2018-04-09 16:00:00 4.9 17 Sur 31 Sur 0.6 892.5 -0.1 89
2018-04-09 15:00:00 3.3 21 Sur 32 Sudoeste 0.4 892.5 0 93
2018-04-09 14:00:00 4.9 18 Oeste 32 Oeste 0 892.5 0.7 81
2018-04-09 13:00:00 4.6 15 Oeste 22 Oeste 0 892.6 1.2 82
2018-04-09 12:00:00 3.1 11 Oeste 30 Oeste 0.2 892.5 1.5 95
2018-04-09 11:00:00 4 12 Oeste 27 Oeste 0 891.8 1 87
2018-04-09 10:00:00 4 6 Noroeste 11 Este 0 891.4 0.8 81
2018-04-09 09:00:00 3.6 8 Nordeste 12 Nordeste 0 891 0.6 91
2018-04-09 08:00:00 2.1 3 Noroeste 8 Oeste 0 890.8 0.7 98
2018-04-09 07:00:00 2.5 5 Oeste 12 Oeste 0 890.6 0.3 99
2018-04-09 06:00:00 2.6 8 Oeste 14 Oeste 0 890.4 -0.5 99
2018-04-09 05:00:00 2.6 11 Oeste 17 Oeste 0 890.1 -0.4 99
2018-04-09 04:00:00 2.9 15 Sur 33 Este 1 890.3 -0.8 94
2018-04-09 03:00:00 2.8 22 Oeste 35 Oeste 0.4 890.9 -0.4 95
2018-04-09 02:00:00 6.1 9 Sudeste 22 Sur 0.6 890.5 -1.2 83
2018-04-09 01:00:00 6.4 6 Sur 12 Sur 0 891.1 -1.1 84
2018-04-09 00:00:00 6.4 8 Sudeste 17 Este 0 891.3 -0.5 84
2018-04-08 23:00:00 6.2 9 Este 18 Este 0.2 891.7 0.2 89
2018-04-08 22:00:00 6.4 7 Sur 26 Sur 0.4 892.2 0.4 90
2018-04-08 21:00:00 7.4 14 Sudeste 34 Sur 0 891.8 -0.4 79
2018-04-08 20:00:00 10.5 10 Oeste 23 Oeste 0 891.5 -1.3 62
2018-04-08 19:00:00 10.2 13 Sudoeste 30 Oeste 0 891.8 -1.7 63
2018-04-08 18:00:00 10.2 20 Oeste 31 Oeste 0 892.2 -1.7 66
2018-04-08 17:00:00 9.7 23 Oeste 35 Oeste 0 892.8 -1.7 71
2018-04-08 16:00:00 9.2 23 Oeste 38 Oeste 0 893.5 -1.3 70
2018-04-08 15:00:00 8.8 19 Oeste 28 Sudoeste 0 893.9 -0.9 66
2018-04-08 14:00:00 6.8 14 Oeste 30 Oeste 0 894.5 0.1 79
2018-04-08 13:00:00 6.3 15 Oeste 28 Oeste 0 894.8 0.3 84
2018-04-08 12:00:00 6.2 10 Oeste 19 Oeste 0 894.8 0.5 90
2018-04-08 11:00:00 5.9 11 Oeste 18 Oeste 0 894.4 0.5 92
2018-04-08 10:00:00 4.8 16 Oeste 21 Oeste 0 894.5 0.8 98
2018-04-08 09:00:00 4.4 14 Oeste 23 Oeste 0 894.3 1.1 99
2018-04-08 08:00:00 4.5 12 Sudoeste 17 Sudoeste 0 893.9 0.6 99
2018-04-08 07:00:00 4.5 11 Oeste 15 Sudoeste 0 893.7 0.7 98
2018-04-08 06:00:00 4.7 9 Sudoeste 16 Oeste 0.4 893.2 0 99
2018-04-08 05:00:00 4.9 11 Sudoeste 17 Oeste 0 893.3 0 96
2018-04-08 04:00:00 5.1 11 Sudoeste 15 Sudoeste 0 893 -0.4 93
2018-04-08 03:00:00 5.4 7 Oeste 12 Sudoeste 0 893.2 -0.2 92
2018-04-08 02:00:00 5.3 6 Sudoeste 14 Sudoeste 0 893.3 0 92
2018-04-08 01:00:00 5.8 10 Sudoeste 16 Sudoeste 0 893.4 0.5 90
2018-04-08 00:00:00 6.3 10 Oeste 15 Oeste 0 893.4 1 88
2018-04-07 23:00:00 6.5 9 Sudoeste 19 Sudoeste 0 893.3 1.3 84
2018-04-07 22:00:00 6.8 9 Sudoeste 14 Sudoeste 0 892.9 0.7 78
2018-04-07 21:00:00 7.2 6 Sur 14 Sudeste 0 892.4 0.1 68
2018-04-07 20:00:00 7.8 7 Este 17 Este 0 892 -0.7 66
2018-04-07 19:00:00 7.7 5 Este 19 Este 0 892.2 -0.6 70
2018-04-07 18:00:00 6.6 10 Este 20 Este 0 892.3 -0.7 83
2018-04-07 17:00:00 5.6 0 Calma 9 Oeste 0.2 892.7 -0.2 89
2018-04-07 16:00:00 5 3 Sur 12 Sur 0.8 892.8 -0.2 91
2018-04-07 15:00:00 4 6 Sur 12 Sur 1 893 0.2 92
2018-04-07 14:00:00 3.8 6 Sur 12 Sudoeste 2.2 892.9 0.2 95
2018-04-07 13:00:00 3.5 8 Sudoeste 18 Oeste 2.2 893 0.7 94
2018-04-07 12:00:00 4.3 7 Oeste 11 Noroeste 0.8 892.8 0.6 96
2018-04-07 11:00:00 4.6 8 Oeste 13 Oeste 1 892.7 0.5 96
2018-04-07 10:00:00 4.5 6 Noroeste 13 Noroeste 0 892.3 0.4 96
2018-04-07 09:00:00 4.9 4 Norte 13 Norte 0 892.2 0.4 90
2018-04-07 08:00:00 4.9 8 Noroeste 21 Noroeste 0 892.2 0.4 88
2018-04-07 07:00:00 6.6 9 Noroeste 18 Noroeste 0 891.9 -0.4 76
2018-04-07 06:00:00 7.6 5 Noroeste 10 Norte 0 891.8 -1 86
2018-04-07 05:00:00 7.8 5 Norte 11 Noroeste 0 891.8 -1.5 86
2018-04-07 04:00:00 7.9 6 Norte 13 Noroeste 0 892.3 -1.1 87
2018-04-07 03:00:00 7.8 6 Noroeste 9 Noroeste 0 892.8 -0.2 88
2018-04-07 02:00:00 8.2 2 Sudoeste 12 Oeste 0 893.3 1 85
2018-04-07 01:00:00 8.3 9 Oeste 28 Oeste 0 893.4 0.9 85
2018-04-07 00:00:00 9.7 18 Oeste 36 Oeste 0 893 1.2 84
2018-04-06 23:00:00 12.9 23 Sudeste 34 Sudeste 0 892.3 0.8 60
2018-04-06 22:00:00 12.6 19 Sur 29 Sudeste 0 892.5 0.8 63
2018-04-06 21:00:00 13.2 19 Sudeste 34 Sur 0 891.8 0 64
2018-04-06 20:00:00 14.2 22 Sudeste 44 Sur 0 891.5 -0.9 60
2018-04-06 19:00:00 14.9 31 Sudeste 59 Sudeste 0 891.7 -1.5 54
2018-04-06 18:00:00 15.2 39 Sudeste 59 Sudeste 0 891.8 -2 57
2018-04-06 17:00:00 15.6 25 Sudeste 45 Sudeste 0 892.4 -2 50
2018-04-06 16:00:00 17 21 Sudeste 47 Sudeste 0 893.2 -2.1 46
2018-04-06 15:00:00 15.6 19 Sudeste 42 Sudoeste 0 893.8 -2 46
2018-04-06 14:00:00 16.9 28 Sur 42 Sudoeste 0 894.4 -1.5 44
2018-04-06 13:00:00 15.8 28 Sur 44 Sur 0 895.3 -0.4 47
2018-04-06 12:00:00 15.3 23 Sur 36 Sudoeste 0 895.8 0 41
2018-04-06 11:00:00 14.5 14 Sudoeste 28 Sudoeste 0 895.9 0 42
2018-04-06 10:00:00 11.7 10 Oeste 28 Sur 0 895.7 -0.2 52
2018-04-06 09:00:00 12.1 5 Este 17 Sur 0 895.8 -0.2 49
2018-04-06 08:00:00 10.3 3 Nordeste 12 Noroeste 0 895.9 -0.6 52
2018-04-06 07:00:00 11.9 7 Sudoeste 32 Sudeste 0 895.9 -0.6 48
2018-04-06 06:00:00 10.7 15 Sudeste 22 Sudeste 0 896 -1.3 51
2018-04-06 05:00:00 11.8 3 Norte 20 Este 0 896.5 -1.4 41
2018-04-06 04:00:00 14 20 Sudeste 38 Sudeste 0 896.5 -1.6 32
2018-04-06 03:00:00 13.4 18 Sudeste 32 Este 0 897.3 -1.3 38
2018-04-06 02:00:00 13.1 18 Sudeste 33 Sudeste 0 897.9 -1.2 40
2018-04-06 01:00:00 13.1 20 Sudeste 43 Sudeste 0 898.1 -1 36
2018-04-06 00:00:00 13.1 12 Sudeste 35 Sudeste 0 898.6 -0.5 36
2018-04-05 23:00:00 12.8 16 Sudeste 25 Sudeste 0 899.1 -0.3 34
2018-04-05 22:00:00 11.9 3 Este 21 Sudeste 0 899.1 -0.6 36
2018-04-05 21:00:00 12.9 15 Sudeste 18 Sudeste 0 899.1 -1.2 41
2018-04-05 20:00:00 15.1 11 Sudeste 22 Sudeste 0 899.4 -1.5 36
2018-04-05 19:00:00 17.4 15 Sudeste 24 Este 0 899.7 -1.7 32
2018-04-05 18:00:00 18.2 6 Noroeste 19 Oeste 0 900.3 -1.8 24
2018-04-05 17:00:00 17.6 6 Oeste 13 Oeste 0 900.9 -2.2 31
2018-04-05 16:00:00 16.5 8 Noroeste 16 Oeste 0 901.4 -2.1 37
2018-04-05 15:00:00 15.8 5 Este 13 Norte 0 902.1 -1.6 37
2018-04-05 14:00:00 14.1 6 Nordeste 15 Noroeste 0 903.1 -0.8 42
2018-04-05 13:00:00 12.3 8 Noroeste 13 Noroeste 0 903.5 -0.1 50
2018-04-05 12:00:00 10.9 4 Nordeste 9 Noroeste 0 903.7 0 55
2018-04-05 11:00:00 8.7 5 Norte 12 Nordeste 0 903.9 0.2 66
2018-04-05 10:00:00 6.4 6 Este 12 Este 0 903.6 0.3 74
2018-04-05 09:00:00 4 6 Nordeste 11 Este 0 903.7 0.5 79
2018-04-05 08:00:00 2.2 6 Este 10 Este 0 903.7 -0.3 87
2018-04-05 07:00:00 2.6 6 Este 9 Nordeste 0 903.3 -1.2 87
2018-04-05 06:00:00 2.7 5 Este 13 Este 0 903.2 -1.5 89
2018-04-05 05:00:00 3.2 4 Este 13 Sudeste 0 904 -0.8 91
2018-04-05 04:00:00 3.8 6 Sur 15 Sur 0 904.5 -0.2 89
2018-04-05 03:00:00 4.5 12 Sur 15 Sur 0 904.7 0.1 92
2018-04-05 02:00:00 4.9 10 Sur 15 Sur 0 904.8 0.4 94
2018-04-05 01:00:00 5.7 8 Sudoeste 12 Sudoeste 0 904.7 1.1 89
2018-04-05 00:00:00 6.3 6 Sudoeste 14 Sudoeste 0 904.6 2.1 90
2018-04-04 23:00:00 7.1 10 Sudoeste 20 Oeste 0 904.4 2.5 89
2018-04-04 22:00:00 7.9 17 Oeste 22 Oeste 0 903.6 2.7 88
2018-04-04 21:00:00 8.1 11 Oeste 30 Oeste 0 902.5 2.4 88
2018-04-04 20:00:00 8.2 21 Oeste 78 Oeste 1.2 901.9 2.4 86
2018-04-04 19:00:00 10.8 37 Oeste 52 Sudoeste 0 900.9 1.4 63
2018-04-04 18:00:00 11.7 39 Oeste 56 Oeste 0 900.1 1 59
2018-04-04 17:00:00 11.3 31 Oeste 50 Oeste 0.6 899.5 0.6 66
2018-04-04 16:00:00 11.5 35 Oeste 53 Noroeste 0 899.5 0.6 64
2018-04-04 15:00:00 11.2 31 Oeste 51 Oeste 0 899.1 0.5 54
2018-04-04 14:00:00 10.2 32 Oeste 52 Oeste 0 898.9 1.1 60
2018-04-04 13:00:00 9.9 34 Oeste 52 Oeste 0 898.9 1.7 60
2018-04-04 12:00:00 8 36 Oeste 50 Oeste 0 898.6 2.1 69
2018-04-04 11:00:00 7.6 27 Sudoeste 37 Sudoeste 0 897.8 2.2 67
2018-04-04 10:00:00 7.1 17 Sudoeste 29 Sudoeste 0 897.2 2.3 68
2018-04-04 09:00:00 6.2 18 Sudoeste 27 Sudoeste 0 896.5 2.1 72
2018-04-04 08:00:00 6.3 13 Sudoeste 22 Sudoeste 0 895.6 1.2 70
2018-04-04 07:00:00 6 15 Sudoeste 23 Sudoeste 0 894.9 0.7 69
2018-04-04 06:00:00 5.8 14 Sudoeste 28 Sudoeste 0 894.4 0 71
2018-04-04 05:00:00 6 19 Sudoeste 31 Sur 0 894.4 0 71
2018-04-04 04:00:00 4.7 9 Sur 14 Sudoeste 0 894.2 0.1 78
2018-04-04 03:00:00 4.8 7 Sudoeste 12 Sudoeste 0 894.4 1 83
2018-04-04 02:00:00 5.6 5 Oeste 28 Sudoeste 0 894.4 1.2 83
2018-04-04 01:00:00 6.8 19 Sudoeste 30 Sudoeste 0 894.1 1.4 80
2018-04-04 00:00:00 6.2 17 Sudoeste 29 Oeste 0 893.4 1.6 88
2018-04-03 23:00:00 6.5 12 Oeste 28 Sudoeste 0 893.2 1.6 81
2018-04-03 22:00:00 8.6 21 Sudoeste 36 Sudoeste 0 892.7 1 70
2018-04-03 21:00:00 9 31 Sudoeste 49 Sudoeste 0 891.8 -0.1 69
2018-04-03 20:00:00 10.7 27 Sudoeste 55 Sudoeste 0 891.6 0.1 62
2018-04-03 19:00:00 10.5 40 Sur 61 Sur 0.2 891.7 -0.4 61
2018-04-03 18:00:00 9.8 28 Sudoeste 60 Sudoeste 0 891.9 -0.6 80
2018-04-03 17:00:00 13 31 Sudoeste 62 Sudoeste 0 891.5 -1.1 54
2018-04-03 16:00:00 12.5 35 Sudoeste 67 Sur 0 892.1 -1 50
2018-04-03 15:00:00 12.5 42 Sudoeste 59 Sudoeste 0 892.5 -0.6 54
2018-04-03 14:00:00 12.9 31 Sudoeste 53 Sudoeste 0 892.6 -0.1 52
2018-04-03 13:00:00 11 29 Sur 48 Sudoeste 0 893.1 0.4 63
2018-04-03 12:00:00 11.5 29 Sur 45 Sudoeste 0 893.1 1.2 54
2018-04-03 11:00:00 10.5 29 Sudoeste 51 Sudoeste 0 892.7 1 57
2018-04-03 10:00:00 8.8 29 Sudoeste 47 Sur 0 892.7 1.2 69
2018-04-03 09:00:00 8.8 21 Sudoeste 43 Sudoeste 0 891.9 0.2 68
2018-04-03 08:00:00 8.2 18 Sudoeste 37 Sudoeste 0 891.7 -0.4 73
2018-04-03 07:00:00 8.3 21 Sur 39 Sur 0 891.5 -0.8 66
2018-04-03 06:00:00 8.2 21 Sur 36 Sudoeste 0 891.7 -0.8 65
2018-04-03 05:00:00 8.2 14 Sudoeste 35 Sudoeste 0 892.1 -0.5 74
2018-04-03 04:00:00 9 23 Sudoeste 35 Sudoeste 0 892.3 -0.6 72
2018-04-03 03:00:00 9.6 17 Sudoeste 30 Sur 0 892.5 -0.3 75
2018-04-03 02:00:00 9.8 14 Sur 30 Sudoeste 0 892.6 -0.3 76
2018-04-03 01:00:00 10.1 19 Sudoeste 35 Sur 0 892.9 0.2 74
2018-04-03 00:00:00 10.5 20 Sur 37 Sudoeste 0 892.8 0.9 70
2018-04-02 23:00:00 10.2 19 Sudoeste 30 Sudoeste 0 892.9 1.3 73
2018-04-02 22:00:00 9.6 13 Sudoeste 43 Sudoeste 0.4 892.7 1.4 88
2018-04-02 21:00:00 12.8 20 Sudoeste 31 Sudoeste 0 891.9 0.8 54
2018-04-02 20:00:00 13.7 24 Sur 39 Sur 0 891.6 0.3 50
2018-04-02 19:00:00 14.7 29 Sudoeste 48 Sudoeste 0 891.3 -0.3 45
2018-04-02 18:00:00 16 28 Sudoeste 47 Sudoeste 0 891.1 -0.6 38
2018-04-02 17:00:00 16.6 26 Sudoeste 51 Sudoeste 0 891.3 -0.4 40
2018-04-02 16:00:00 15.2 30 Sur 51 Sudoeste 0 891.6 -1 42
2018-04-02 15:00:00 16.8 33 Sudoeste 52 Sur 0 891.7 -1.3 37
2018-04-02 14:00:00 15.1 14 Este 43 Sur 0 891.7 -0.9 39
2018-04-02 13:00:00 14.2 20 Sur 33 Sudeste 0 892.6 0.1 42
2018-04-02 12:00:00 12.4 20 Sudoeste 39 Sudoeste 0 893 0.7 47
2018-04-02 11:00:00 13 15 Sudoeste 26 Sudoeste 0 892.6 0.1 43
2018-04-02 10:00:00 11.9 11 Sudoeste 30 Sur 0 892.5 0.3 46
2018-04-02 09:00:00 11.7 16 Sur 30 Sur 0 892.3 -0.2 45
2018-04-02 08:00:00 10.9 8 Oeste 23 Sudoeste 0 892.5 -0.5 51
2018-04-02 07:00:00 11.2 8 Nordeste 25 Sudeste 0 892.2 -1 51
2018-04-02 06:00:00 11.8 18 Este 28 Este 0 892.5 -1.2 48
2018-04-02 05:00:00 12 8 Oeste 25 Sur 0 893 -1.5 46
2018-04-02 04:00:00 13 16 Sudeste 26 Sudeste 0 893.2 -1.8 42
2018-04-02 03:00:00 13.3 16 Este 37 Sudeste 0 893.7 -1.4 40
2018-04-02 02:00:00 12.9 26 Sudeste 39 Sudeste 0 894.5 -1.4 43
2018-04-02 01:00:00 12.8 3 Nordeste 22 Sur 0 895 -1.2 45
2018-04-02 00:00:00 13.2 19 Sudeste 37 Sudeste 0 895.1 -1.1 44
2018-04-01 23:00:00 12.9 21 Sudeste 32 Sur 0 895.9 -0.2 44
2018-04-01 22:00:00 12.5 14 Sur 21 Sur 0 896.2 0 46
2018-04-01 21:00:00 12.6 8 Sudeste 25 Sudeste 0 896.2 -0.2 48
2018-04-01 20:00:00 13.4 14 Sudeste 25 Sudeste 0 896.1 -1 45
2018-04-01 19:00:00 14.5 15 Sudeste 27 Este 0 896.2 -1.4 43
2018-04-01 18:00:00 15.6 17 Sudeste 29 Sudeste 0 896.4 -2.1 42
2018-04-01 17:00:00 17 17 Sudeste 30 Sudeste 0 897.1 -2.2 40
2018-04-01 16:00:00 17.2 5 Nordeste 17 Sudoeste 0 897.6 -2.5 40
2018-04-01 15:00:00 16.7 7 Oeste 13 Oeste 0 898.5 -1.7 43
2018-04-01 14:00:00 15 4 Norte 12 Norte 0 899.3 -0.9 47
2018-04-01 13:00:00 12.6 8 Noroeste 15 Oeste 0 900.1 -0.9 52
2018-04-01 12:00:00 12.2 9 Oeste 14 Oeste 0 900.2 -0.6 53
2018-04-01 11:00:00 10.2 9 Este 16 Este 0 900.2 -0.9 56
2018-04-01 10:00:00 7.4 4 Este 9 Este 0 901 -0.3 70
2018-04-01 09:00:00 4.8 5 Este 14 Este 0 900.8 -0.7 75
2018-04-01 08:00:00 4.1 12 Sudeste 14 Sudeste 0 901.1 -0.8 78
2018-04-01 07:00:00 4.6 13 Sur 16 Sur 0 901.3 -0.9 77
2018-04-01 06:00:00 5.4 10 Sudeste 12 Sudeste 0 901.5 -1.1 73
2018-04-01 05:00:00 4.8 7 Sur 15 Sudeste 0 901.9 -0.6 72
2018-04-01 04:00:00 4.9 10 Sur 14 Sur 0 902.2 -0.3 72
2018-04-01 03:00:00 4.5 10 Sudeste 14 Sur 0 902.6 0.2 71
2018-04-01 02:00:00 3.9 13 Sur 16 Sur 0 902.5 0.1 67
2018-04-01 01:00:00 3.3 14 Sudeste 16 Sudeste 0 902.5 0.7 69
2018-04-01 00:00:00 3.7 8 Sudeste 16 Sudeste 0 902.4 1.3 69
2018-03-31 23:00:00 4.4 6 Sur 10 Sudoeste 0 902.4 1.6 65
2018-03-31 22:00:00 5.4 5 Sudoeste 14 Oeste 0 901.8 1.4 63
2018-03-31 21:00:00 6.5 11 Oeste 22 Oeste 0 901.1 0.8 58
2018-03-31 20:00:00 8.1 15 Oeste 32 Oeste 0 900.8 0.7 48
2018-03-31 19:00:00 8.8 24 Oeste 41 Oeste 0 900.4 0.5 45
2018-03-31 18:00:00 8.9 23 Oeste 40 Oeste 0 900.3 0.7 47
2018-03-31 17:00:00 8.5 23 Oeste 44 Oeste 0 900.1 0.4 49
2018-03-31 16:00:00 8.5 27 Oeste 45 Oeste 0 899.9 0.2 50
2018-03-31 15:00:00 7.6 24 Oeste 38 Oeste 0 899.6 0.5 51
2018-03-31 14:00:00 6.7 22 Noroeste 38 Noroeste 0 899.7 1.4 57
2018-03-31 13:00:00 5.7 21 Oeste 38 Oeste 0 899.7 2.5 72
2018-03-31 12:00:00 4.6 16 Oeste 38 Oeste 0 899.1 3.1 74
2018-03-31 11:00:00 2.8 23 Oeste 41 Noroeste 0 898.3 3.6 86
2018-03-31 10:00:00 2.1 26 Oeste 40 Oeste 0 897.2 3.6 89
2018-03-31 09:00:00 1.4 24 Oeste 50 Oeste 0 896 3.1 92
2018-03-31 08:00:00 1.4 30 Oeste 52 Oeste 0 894.7 2.6 91
2018-03-31 07:00:00 1.4 39 Oeste 55 Oeste 0 893.6 2.1 89
2018-03-31 06:00:00 1.4 36 Oeste 61 Oeste 0 892.9 1.8 89
2018-03-31 05:00:00 1.4 40 Oeste 58 Oeste 0 892.1 1.3 88
2018-03-31 04:00:00 1.4 44 Oeste 63 Oeste 0 891.5 1.1 85
2018-03-31 03:00:00 1.6 42 Oeste 68 Oeste 0 891.1 1.1 86
2018-03-31 02:00:00 1.4 28 Oeste 47 Oeste 0 890.8 1.1 89
2018-03-31 01:00:00 1.5 28 Oeste 48 Oeste 0 890.4 2 89
2018-03-31 00:00:00 1.9 31 Oeste 57 Oeste 0 890 1.8 90
2018-03-30 23:00:00 1.8 42 Oeste 59 Oeste 0.8 889.7 1.3 94
2018-03-30 22:00:00 2.5 22 Sudoeste 47 Sudoeste 0.2 888.4 0.2 92
2018-03-30 21:00:00 3.9 30 Sudoeste 49 Sudoeste 0.2 888.2 -0.4 77
2018-03-30 20:00:00 4.2 22 Sudoeste 64 Sudoeste 0.2 888.4 -0.7 72
2018-03-30 19:00:00 7.1 33 Sudoeste 50 Sudoeste 0 888.2 -1.8 41
2018-03-30 18:00:00 7.6 33 Oeste 54 Oeste 0 888.6 -2.3 37
2018-03-30 17:00:00 8.6 29 Oeste 47 Oeste 0 889.1 -2.6 36
2018-03-30 16:00:00 7.7 18 Oeste 39 Sudoeste 0 890 -2.1 41
2018-03-30 15:00:00 7.1 19 Oeste 32 Oeste 0 890.9 -1.6 46
2018-03-30 14:00:00 5.7 17 Sudoeste 31 Oeste 0 891.7 -1.2 52
2018-03-30 13:00:00 4.9 20 Oeste 34 Sudoeste 0 892.1 -0.9 60
2018-03-30 12:00:00 3.6 16 Sudoeste 25 Sudoeste 0 892.5 -0.2 68
2018-03-30 11:00:00 1.7 13 Oeste 32 Oeste 0 892.9 0.6 74
2018-03-30 10:00:00 0.8 19 Oeste 26 Oeste 0 893 0.8 85
2018-03-30 09:00:00 0.6 20 Oeste 27 Sudoeste 0 892.7 1.1 88
2018-03-30 08:00:00 0.9 23 Sudoeste 36 Sudoeste 0 892.3 0.9 87
2018-03-30 07:00:00 1.5 20 Oeste 37 Oeste 0 892.2 1.6 89
2018-03-30 06:00:00 1.8 30 Oeste 49 Oeste 0 891.6 0.6 91
2018-03-30 05:00:00 2.1 36 Oeste 63 Oeste 0.2 891.4 0.5 91
2018-03-30 04:00:00 5 22 Sudoeste 54 Sudoeste 0 890.6 -0.7 74
2018-03-30 03:00:00 5.4 25 Sudoeste 48 Sur 0 891 -0.5 71
2018-03-30 02:00:00 6.2 27 Sudoeste 42 Sudoeste 0 890.9 -1.6 61
2018-03-30 01:00:00 6.6 25 Sudoeste 39 Sudoeste 0 891.3 -1 55
2018-03-30 00:00:00 7 18 Sudoeste 30 Sur 0 891.5 -0.9 51
2018-03-29 23:00:00 6.7 21 Sudoeste 33 Sudoeste 0 892.5 -0.1 59
2018-03-29 22:00:00 7.7 12 Oeste 17 Oeste 0 892.3 -0.6 57
2018-03-29 21:00:00 8.2 11 Oeste 23 Noroeste 0 892.4 -0.9 54
2018-03-29 20:00:00 9.6 15 Oeste 27 Oeste 0 892.6 -1.4 45
2018-03-29 19:00:00 10.5 21 Oeste 32 Oeste 0 892.9 -1.9 35
2018-03-29 18:00:00 10.9 10 Oeste 24 Oeste 0 893.3 -2.7 34
2018-03-29 17:00:00 10.6 12 Oeste 31 Oeste 0 894 -2.9 35
2018-03-29 16:00:00 10.1 13 Oeste 28 Sudoeste 0 894.8 -3 38
2018-03-29 15:00:00 8.7 15 Oeste 27 Sudoeste 0 896 -2.1 49
2018-03-29 14:00:00 7.5 14 Oeste 28 Sudoeste 0 896.9 -1.2 58
2018-03-29 13:00:00 6.1 17 Oeste 36 Oeste 0 897.8 0 64
2018-03-29 12:00:00 5.5 21 Oeste 31 Oeste 0 898.1 0.3 74
2018-03-29 11:00:00 5.5 18 Oeste 30 Oeste 0 898.1 0.2 82
2018-03-29 10:00:00 4.9 17 Oeste 27 Oeste 0 897.8 -0.2 88
2018-03-29 09:00:00 5 14 Oeste 23 Oeste 0 897.8 -0.3 93
2018-03-29 08:00:00 5.2 12 Oeste 21 Oeste 0 897.9 -0.5 96
2018-03-29 07:00:00 5.4 19 Oeste 25 Oeste 0 898 -0.9 96
2018-03-29 06:00:00 6.1 16 Oeste 24 Oeste 0 898.1 -1.1 95
2018-03-29 05:00:00 6.4 11 Oeste 24 Oeste 0 898.4 -1.3 96
2018-03-29 04:00:00 7.1 19 Oeste 25 Oeste 0 898.9 -1.3 94
2018-03-29 03:00:00 7.6 15 Oeste 24 Oeste 0 899.2 -1.4 92
2018-03-29 02:00:00 7.7 16 Oeste 26 Oeste 0 899.7 -1.2 93
2018-03-29 01:00:00 8.3 17 Oeste 28 Oeste 0 900.2 -0.8 86
2018-03-29 00:00:00 8.8 14 Sudoeste 22 Sudoeste 0 900.6 -0.1 82
2018-03-28 23:00:00 9.2 14 Sudoeste 19 Sudoeste 0 900.9 0.3 78
2018-03-28 22:00:00 9.6 17 Oeste 23 Oeste 0 901 0.6 76
2018-03-28 21:00:00 10.2 13 Sudoeste 27 Oeste 0 900.7 0.1 71
2018-03-28 20:00:00 12.3 20 Oeste 37 Oeste 0 900.6 -0.5 57
2018-03-28 19:00:00 14.1 18 Oeste 29 Oeste 0 900.4 -1.3 53
2018-03-28 18:00:00 15 22 Oeste 35 Oeste 0 900.6 -2.1 46
2018-03-28 17:00:00 15.2 20 Noroeste 39 Noroeste 0 901.1 -2.4 44
2018-03-28 16:00:00 17 21 Oeste 41 Oeste 0 901.7 -2.5 28
2018-03-28 15:00:00 17 27 Oeste 47 Oeste 0 902.7 -2.2 27
2018-03-28 14:00:00 16.7 29 Oeste 42 Oeste 0 903.5 -1.8 23
2018-03-28 13:00:00 15.9 24 Oeste 35 Oeste 0 904.2 -1.3 23
2018-03-28 12:00:00 14.7 18 Sudoeste 25 Sudoeste 0 904.9 -1.1 29
2018-03-28 11:00:00 13.6 13 Sudoeste 20 Sudoeste 0 905.3 -0.9 31
2018-03-28 10:00:00 11 7 Sudeste 14 Sudeste 0 905.5 -1.1 49
2018-03-28 09:00:00 7.1 10 Sudeste 17 Sudeste 0 906 -0.9 63
2018-03-28 08:00:00 5.3 13 Sudeste 16 Sudeste 0 906.2 -1 66
2018-03-28 07:00:00 5.5 6 Este 16 Sudeste 0 906.6 -1.2 69
2018-03-28 06:00:00 6.3 13 Sudeste 15 Sudeste 0 906.9 -1.5 67
2018-03-28 05:00:00 6.3 13 Sudeste 16 Sudeste 0 907.2 -1.7 70
2018-03-28 04:00:00 6.9 11 Sudeste 19 Sudeste 0 907.8 -1.5 73
2018-03-28 03:00:00 7 14 Sudeste 17 Sur 0 908.4 -1.3 79
2018-03-28 02:00:00 7.8 8 Sur 12 Sur 0 908.9 -0.9 78
2018-03-28 01:00:00 9.2 2 Nordeste 14 Sudeste 0 909.3 -0.4 76
2018-03-28 00:00:00 9.3 5 Este 10 Sudeste 0 909.7 0.1 75
2018-03-27 23:00:00 10.6 3 Sudoeste 16 Sudeste 0 909.8 0.1 70
2018-03-27 22:00:00 11.1 9 Sur 15 Sur 0 909.7 0.1 64
2018-03-27 21:00:00 12.7 7 Sudoeste 12 Sudoeste 0 909.6 -0.1 58
2018-03-27 20:00:00 15 6 Oeste 21 Oeste 0 909.7 -0.1 47
2018-03-27 19:00:00 15.2 12 Oeste 25 Oeste 0 909.6 -0.7 47
2018-03-27 18:00:00 15.4 10 Oeste 25 Oeste 0 909.7 -1 49
2018-03-27 17:00:00 14.9 7 Oeste 20 Sudoeste 0 909.8 -1.2 55
2018-03-27 16:00:00 14.1 10 Oeste 23 Oeste 0 910.3 -1.2 56
2018-03-27 15:00:00 13.4 13 Sudoeste 23 Sudoeste 0 910.7 -0.7 59
2018-03-27 14:00:00 12.5 5 Oeste 14 Sudoeste 0 911 -0.4 65
2018-03-27 13:00:00 11.1 9 Oeste 17 Oeste 0 911.5 0.4 67
2018-03-27 12:00:00 9.7 7 Sudoeste 14 Oeste 0 911.4 0.4 74
2018-03-27 11:00:00 8.2 13 Oeste 18 Oeste 0 911.4 1 80
2018-03-27 10:00:00 6.8 10 Sur 17 Sur 0 911.1 1.5 87
2018-03-27 09:00:00 5.9 11 Sur 17 Sudoeste 0 911 1.5 93
2018-03-27 08:00:00 5.5 9 Sudoeste 18 Sudoeste 0 910.4 1 96
2018-03-27 07:00:00 5.6 14 Oeste 18 Oeste 0 909.6 0.3 97
2018-03-27 06:00:00 5.9 14 Oeste 19 Oeste 0 909.5 -0.1 95
2018-03-27 05:00:00 6.5 10 Oeste 16 Oeste 0 909.4 -0.1 85
2018-03-27 04:00:00 6.6 5 Sudoeste 8 Sur 0 909.3 -0.1 77
2018-03-27 03:00:00 6.6 7 Sur 9 Sur 0 909.6 0.1 74
2018-03-27 02:00:00 6.8 4 Sudoeste 9 Sudoeste 0 909.5 0.3 69
2018-03-27 01:00:00 7 6 Sudoeste 7 Sudoeste 0 909.4 0.2 64
2018-03-27 00:00:00 7 0 Calma 9 Noroeste 0 909.5 0.7 63
2018-03-26 23:00:00 6.9 4 Noroeste 8 Noroeste 0 909.2 0.7 57
2018-03-26 22:00:00 6.9 5 Oeste 12 Oeste 0 909.2 1.4 59
2018-03-26 21:00:00 6.9 8 Oeste 24 Oeste 0 908.8 0.8 60
2018-03-26 20:00:00 8.9 15 Oeste 31 Oeste 0 908.5 0.5 49
2018-03-26 19:00:00 9.8 18 Oeste 30 Oeste 0 907.8 -0.1 47
2018-03-26 18:00:00 10 13 Oeste 29 Oeste 0 908 -0.4 48
2018-03-26 17:00:00 9.6 12 Oeste 30 Oeste 0 908 -0.6 57
2018-03-26 16:00:00 8.5 10 Oeste 22 Oeste 0 907.9 -0.4 53
2018-03-26 15:00:00 8.1 11 Oeste 19 Oeste 0 908.4 -0.1 59
2018-03-26 14:00:00 6.9 7 Sudoeste 16 Sudoeste 0 908.6 0.6 68
2018-03-26 13:00:00 5.3 8 Sudoeste 16 Sudoeste 0 908.3 1 71
2018-03-26 12:00:00 3.5 5 Sudoeste 15 Sur 0 908.5 2 79
2018-03-26 11:00:00 2.1 8 Sudoeste 15 Sudoeste 0 908 2.1 86
2018-03-26 10:00:00 1.3 9 Sudoeste 12 Sudoeste 0 907.3 2.2 83
2018-03-26 09:00:00 0.5 7 Sudoeste 12 Sudoeste 0 906.5 2.1 87
2018-03-26 08:00:00 0.3 12 Oeste 15 Oeste 0 905.9 1.7 92
2018-03-26 07:00:00 0.6 8 Oeste 12 Oeste 0 905.1 1.3 91
2018-03-26 06:00:00 1.3 0 Calma 7 Sudoeste 0 904.4 0.7 87
2018-03-26 05:00:00 1.8 5 Este 12 Nordeste 0 904.2 0.8 84
2018-03-26 04:00:00 2.1 6 Este 18 Norte 0 903.8 1.2 80
2018-03-26 03:00:00 2.9 9 Nordeste 19 Nordeste 0 903.7 1.4 76
2018-03-26 02:00:00 3.5 8 Norte 21 Norte 0 903.4 1.8 77
2018-03-26 01:00:00 4 8 Noroeste 15 Noroeste 0 902.6 1.6 76
2018-03-26 00:00:00 3.8 0 Calma 7 Sur 0 902.3 2.3 87
2018-03-25 23:00:00 3.9 3 Sur 10 Sudeste 0 901.6 2.1 88
2018-03-25 22:00:00 3.5 5 Sudeste 15 Sudeste 0 901 2.1 93
2018-03-25 21:00:00 3.4 12 Sudeste 17 Sudeste 0 900 1.6 94
2018-03-25 20:00:00 3.9 5 Noroeste 10 Noroeste 0 899.5 1.8 89
2018-03-25 19:00:00 3.7 6 Noroeste 22 Noroeste 0.6 898.9 1.6 90
2018-03-25 18:00:00 4 11 Noroeste 22 Oeste 0.4 898.4 1.8 86
2018-03-25 17:00:00 4.5 8 Noroeste 31 Norte 0 897.7 1.1 85
2018-03-25 16:00:00 4.6 13 Noroeste 28 Noroeste 0.2 897.3 1 80
2018-03-25 15:00:00 6 8 Oeste 19 Noroeste 0 896.6 0.5 65
2018-03-25 14:00:00 5.1 5 Noroeste 16 Noroeste 0 896.6 1.2 71
2018-03-25 13:00:00 5 6 Oeste 17 Noroeste 0 896.3 1.4 73
2018-03-25 12:00:00 3.1 8 Noroeste 21 Noroeste 0 896.1 1.8 85
2018-03-25 11:00:00 2.1 9 Oeste 16 Oeste 0 895.4 1.6 94
2018-03-25 10:00:00 1.6 9 Oeste 15 Oeste 0 894.9 1.6 96
2018-03-25 09:00:00 1.2 6 Oeste 15 Oeste 0 894.3 1 97
2018-03-25 08:00:00 1.1 10 Oeste 17 Sudoeste 0 893.8 0.4 96
2018-03-25 07:00:00 1.3 12 Sudoeste 21 Sudoeste 0 893.3 0 94
2018-03-25 06:00:00 1.5 6 Sudoeste 22 Oeste 0 893.3 -0.1 93
2018-03-25 05:00:00 1.7 15 Oeste 22 Oeste 0 893.4 0.1 91
2018-03-25 03:00:00 2 18 Oeste 32 Oeste 0 893.4 -0.1 85
2018-03-25 01:00:00 2.3 19 Oeste 28 Oeste 0 893.3 -0.1 84
2018-03-25 00:00:00 2.5 13 Oeste 31 Oeste 0 893.3 0.6 83
2018-03-24 23:00:00 2.9 16 Oeste 36 Oeste 0 893.5 1.3 79
2018-03-24 22:00:00 3.4 22 Oeste 40 Oeste 0 893.4 2.2 78
2018-03-24 21:00:00 3.8 23 Oeste 49 Oeste 0 892.7 2.1 80
2018-03-24 20:00:00 4.3 33 Oeste 57 Oeste 0 892.2 2.4 80
2018-03-24 19:00:00 5.2 36 Oeste 65 Oeste 0 891.2 1.6 75
2018-03-24 18:00:00 5.6 31 Oeste 64 Oeste 0 890.6 1.4 76
2018-03-24 17:00:00 6.5 39 Oeste 72 Oeste 0 889.8 0.8 65
2018-03-24 16:00:00 6.2 35 Oeste 68 Oeste 0 889.6 0.5 68
2018-03-24 15:00:00 5.9 38 Oeste 71 Oeste 0 889.2 -0.2 72
2018-03-24 14:00:00 5.2 33 Oeste 72 Oeste 0 889 -0.8 74
2018-03-24 13:00:00 4.2 37 Oeste 71 Oeste 0 889.1 -0.7 78
2018-03-24 12:00:00 2.8 39 Oeste 58 Oeste 0 889.4 -0.2 84
2018-03-24 11:00:00 1.3 37 Oeste 57 Oeste 0 889.8 0.7 88
2018-03-24 10:00:00 0.9 38 Oeste 55 Oeste 0 889.8 1.3 89
2018-03-24 09:00:00 0.2 30 Oeste 50 Oeste 0 889.6 1.3 93
2018-03-24 08:00:00 -0.1 28 Oeste 45 Oeste 0 889.1 1.3 93
2018-03-24 07:00:00 -0.1 24 Oeste 41 Oeste 0 888.5 1 93
2018-03-24 06:00:00 -0.1 27 Oeste 44 Oeste 0 888.3 0.3 93
2018-03-24 05:00:00 0 32 Oeste 46 Oeste 0 887.8 -1.8 94
2018-03-24 04:00:00 0 24 Oeste 40 Oeste 0 887.5 -2.5 95
2018-03-24 03:00:00 0.9 15 Oeste 29 Oeste 0 888 1.2 93
2018-03-24 02:00:00 1.5 17 Oeste 30 Oeste 0.2 889.6 2.1 91
2018-03-24 01:00:00 1.5 22 Oeste 73 Noroeste 1.6 890 1.1 96
2018-03-24 00:00:00 6.8 30 Sudoeste 43 Oeste 0.4 886.8 -3.4 89
2018-03-23 23:00:00 7 14 Sudoeste 20 Sudoeste 0.2 887.5 -4.3 89
2018-03-23 22:00:00 7.3 11 Sudoeste 30 Sudoeste 0.6 888.9 -4.2 88
2018-03-23 21:00:00 7.6 14 Sudoeste 37 Sudoeste 0 890.2 -3.8 91
2018-03-23 20:00:00 7.7 20 Sudoeste 43 Sudoeste 0 891.8 -3 92
2018-03-23 19:00:00 8 23 Sudoeste 35 Sudoeste 0 893.1 -2.8 91
2018-03-23 18:00:00 8.4 20 Oeste 33 Oeste 0 894 -3.1 94
2018-03-23 17:00:00 8.5 21 Sudoeste 46 Oeste 0.6 894.8 -3.6 96
2018-03-23 16:00:00 8.3 28 Oeste 41 Sudoeste 1.2 895.9 -3.7 100
2018-03-23 15:00:00 7.7 21 Oeste 27 Oeste 0.8 897.1 -3.5 100
2018-03-23 14:00:00 7.1 9 Sur 19 Sudoeste 0.2 898.4 -2.9 100
2018-03-23 13:00:00 6.5 10 Sur 14 Sur 0.2 899.6 -2.5 100
2018-03-23 12:00:00 5.8 8 Sudoeste 17 Sur 0 900.6 -1.6 98
2018-03-23 11:00:00 5 10 Sur 16 Sur 0 901.3 -1.2 96
2018-03-23 10:00:00 3.7 9 Sudeste 18 Sudeste 0.6 902.1 -0.4 89
2018-03-23 09:00:00 4.2 12 Sur 17 Sur 0 902.2 -0.7 82
2018-03-23 08:00:00 3.9 10 Sudeste 18 Sur 0 902.5 -0.6 75
2018-03-23 07:00:00 3.9 13 Sur 18 Sur 0 902.5 -1 72
2018-03-23 06:00:00 3.5 7 Sur 14 Sur 0 902.9 -1.1 74
2018-03-23 05:00:00 3.6 9 Sudoeste 16 Sudoeste 0 903.1 -1.6 69
2018-03-23 04:00:00 2.1 5 Sur 13 Sudeste 0 903.5 -1.4 68
2018-03-23 03:00:00 1.5 13 Sudeste 19 Sudeste 0 904 -1.3 69
2018-03-23 02:00:00 1.5 13 Sudeste 18 Sudeste 0 904.7 -1.4 70
2018-03-23 01:00:00 1.2 14 Sudeste 20 Sudeste 0 904.9 -1.5 73
2018-03-23 00:00:00 1.7 18 Sudeste 22 Sudeste 0 905.3 -0.9 69
2018-03-22 23:00:00 1.2 13 Sudeste 15 Sudeste 0 906.1 0.2 77
2018-03-22 22:00:00 2 8 Sur 10 Sudoeste 0 906.4 0.8 73
2018-03-22 21:00:00 3.5 6 Sudoeste 13 Sudoeste 0 906.2 0.2 66
2018-03-22 20:00:00 4.5 4 Sudoeste 8 Sudoeste 0 905.9 -0.3 63
2018-03-22 19:00:00 6.4 5 Sur 19 Sudoeste 0 905.6 -1.1 54
2018-03-22 18:00:00 7.1 5 Oeste 13 Noroeste 0 906 -1.2 51
2018-03-22 17:00:00 6.9 6 Oeste 17 Noroeste 0 906.2 -1.7 51
2018-03-22 16:00:00 6.3 9 Noroeste 17 Noroeste 0 906.7 -2 51
2018-03-22 15:00:00 5.9 8 Noroeste 16 Norte 0 907.2 -1.9 54
2018-03-22 14:00:00 5 5 Noroeste 19 Noroeste 0 907.9 -1.7 54
2018-03-22 13:00:00 3.7 9 Noroeste 22 Norte 0 908.7 -1 66
2018-03-22 12:00:00 2.7 14 Nordeste 23 Nordeste 0 909.1 -0.4 63
2018-03-22 11:00:00 1.2 8 Norte 19 Norte 0 909.6 0.5 73
2018-03-22 10:00:00 0.1 9 Norte 18 Norte 0 909.7 0.6 74
2018-03-22 09:00:00 -0.4 11 Norte 20 Norte 0 909.5 0.5 77
2018-03-22 08:00:00 -2.2 6 Nordeste 12 Norte 0 909.1 0 80
2018-03-22 07:00:00 -2.3 6 Nordeste 12 Nordeste 0 909.1 -0.4 78
2018-03-22 06:00:00 -2.3 8 Nordeste 23 Norte 0 909 -1.1 78
2018-03-22 05:00:00 -2 14 Norte 25 Norte 0 909.1 -1.2 76
2018-03-22 04:00:00 -1.8 14 Nordeste 30 Nordeste 0 909.5 -1.2 74
2018-03-22 03:00:00 -1.7 8 Nordeste 24 Nordeste 0 910.1 -1 76
2018-03-22 02:00:00 -1.7 13 Nordeste 20 Nordeste 0 910.3 -0.9 77
2018-03-22 01:00:00 -1.2 13 Nordeste 28 Norte 0 910.7 -0.2 76
2018-03-22 00:00:00 -1.1 10 Nordeste 25 Nordeste 0 911.1 0.5 76